createdAt,value
2022-11-17T00:00:17.774Z,1.00
2022-11-17T00:00:42.090Z,1.00
2022-11-17T00:01:06.392Z,1.00
2022-11-17T00:01:30.561Z,1.00
2022-11-17T00:01:53.257Z,1.00
2022-11-17T00:02:15.969Z,1.00
2022-11-17T00:02:38.832Z,1.00
2022-11-17T00:03:01.592Z,1.00
2022-11-17T00:03:24.323Z,1.00
2022-11-17T00:03:47.117Z,1.00
2022-11-17T00:04:09.821Z,1.00
2022-11-17T00:04:32.610Z,1.00
2022-11-17T00:04:55.366Z,1.00
2022-11-17T00:05:18.357Z,1.00
2022-11-17T00:05:41.157Z,1.00
2022-11-17T00:06:04.697Z,1.00
2022-11-17T00:06:27.373Z,1.00
2022-11-17T00:06:50.102Z,1.00
2022-11-17T00:07:12.854Z,1.00
2022-11-17T00:07:35.679Z,1.00
2022-11-17T00:07:58.403Z,1.30
2022-11-17T00:08:21.209Z,1.10
2022-11-17T00:08:44.013Z,1.40
2022-11-17T00:09:06.718Z,1.20
2022-11-17T00:09:29.467Z,1.20
2022-11-17T00:09:52.235Z,1.40
2022-11-17T00:10:15.188Z,1.60
2022-11-17T00:10:37.985Z,2.40
2022-11-17T00:11:01.208Z,2.50
2022-11-17T00:11:24.036Z,2.40
2022-11-17T00:12:05.328Z,2.20
2022-11-17T00:12:46.617Z,2.40
2022-11-17T00:13:28.857Z,2.90
2022-11-17T00:14:10.082Z,3.50
2022-11-17T00:14:32.944Z,3.60
2022-11-17T00:14:55.623Z,3.80
2022-11-17T00:15:18.292Z,3.80
2022-11-17T00:15:43.566Z,4.00
2022-11-17T00:16:06.719Z,4.60
2022-11-17T00:16:30.866Z,4.50
2022-11-17T00:16:53.599Z,4.70
2022-11-17T00:17:16.298Z,4.60
2022-11-17T00:17:38.997Z,4.70
2022-11-17T00:18:20.492Z,4.70
2022-11-17T00:19:02.078Z,5.10
2022-11-17T00:19:43.244Z,6.00
2022-11-17T00:20:26.739Z,4.90
2022-11-17T00:21:07.847Z,3.90
2022-11-17T00:21:30.652Z,3.20
2022-11-17T00:21:53.363Z,3.70
2022-11-17T00:22:16.074Z,3.60
2022-11-17T00:22:38.805Z,3.10
2022-11-17T00:23:01.536Z,2.80
2022-11-17T00:23:24.332Z,3.20
2022-11-17T00:23:47.433Z,3.50
2022-11-17T00:24:10.541Z,3.00
2022-11-17T00:24:33.432Z,2.80
2022-11-17T00:24:56.157Z,3.00
2022-11-17T00:25:18.881Z,3.30
2022-11-17T00:25:41.612Z,3.60
2022-11-17T00:26:04.267Z,4.00
2022-11-17T00:26:28.312Z,3.20
2022-11-17T00:27:03.302Z,2.70
2022-11-17T00:27:25.987Z,2.90
2022-11-17T00:27:48.767Z,3.00
2022-11-17T00:28:11.432Z,2.90
2022-11-17T00:28:34.646Z,2.50
2022-11-17T00:28:58.587Z,1.80
2022-11-17T00:29:22.426Z,1.60
2022-11-17T00:29:45.208Z,2.30
2022-11-17T00:30:08.840Z,1.60
2022-11-17T00:30:50.091Z,1.10
2022-11-17T00:31:31.476Z,1.00
2022-11-17T00:32:14.244Z,1.00
2022-11-17T00:32:55.461Z,1.00
2022-11-17T00:33:39.694Z,1.00
2022-11-17T00:34:05.626Z,1.30
2022-11-17T00:34:28.337Z,1.10
2022-11-17T00:34:51.032Z,1.00
2022-11-17T00:35:13.871Z,1.30
2022-11-17T00:35:36.522Z,1.30
2022-11-17T00:35:59.192Z,1.00
2022-11-17T00:36:24.336Z,1.00
2022-11-17T00:36:49.368Z,1.00
2022-11-17T00:37:12.177Z,1.00
2022-11-17T00:37:36.018Z,1.00
2022-11-17T00:38:16.963Z,1.00
2022-11-17T00:38:39.678Z,1.00
2022-11-17T00:39:02.504Z,1.00
2022-11-17T00:39:28.028Z,1.00
2022-11-17T00:39:50.724Z,1.00
2022-11-17T00:40:14.597Z,1.20
2022-11-17T00:40:40.147Z,1.60
2022-11-17T00:41:02.878Z,1.10
2022-11-17T00:41:28.825Z,1.00
2022-11-17T00:41:51.521Z,1.00
2022-11-17T00:42:14.248Z,1.00
2022-11-17T00:42:38.015Z,1.00
2022-11-17T00:43:00.698Z,1.00
2022-11-17T00:43:26.171Z,1.00
2022-11-17T00:43:48.932Z,1.00
2022-11-17T00:44:11.871Z,1.00
2022-11-17T00:44:34.575Z,1.00
2022-11-17T00:44:57.337Z,1.00
2022-11-17T00:45:20.043Z,1.00
2022-11-17T00:45:42.789Z,1.00
2022-11-17T00:46:05.857Z,1.00
2022-11-17T00:46:28.637Z,1.00
2022-11-17T00:46:51.417Z,1.00
2022-11-17T00:47:15.568Z,1.00
2022-11-17T00:47:38.349Z,1.00
2022-11-17T00:48:04.167Z,1.00
2022-11-17T00:48:26.812Z,1.00
2022-11-17T00:48:49.604Z,1.00
2022-11-17T00:49:12.441Z,1.00
2022-11-17T00:49:36.833Z,1.00
2022-11-17T00:49:59.545Z,1.00
2022-11-17T00:50:22.328Z,1.00
2022-11-17T00:50:45.107Z,1.00
2022-11-17T00:51:07.903Z,1.00
2022-11-17T00:51:30.667Z,1.00
2022-11-17T00:51:53.447Z,1.00
2022-11-17T00:52:16.170Z,1.00
2022-11-17T00:52:38.878Z,1.00
2022-11-17T00:53:01.541Z,1.00
2022-11-17T00:53:24.277Z,1.00
2022-11-17T00:53:47.090Z,1.00
2022-11-17T00:54:11.527Z,1.00
2022-11-17T00:54:34.247Z,1.00
2022-11-17T00:54:57.023Z,1.00
2022-11-17T00:55:20.962Z,1.00
2022-11-17T00:55:43.896Z,1.00
2022-11-17T00:56:07.073Z,1.00
2022-11-17T00:56:29.737Z,1.00
2022-11-17T00:56:52.372Z,1.00
2022-11-17T00:57:15.027Z,1.00
2022-11-17T00:57:37.747Z,1.00
2022-11-17T00:58:00.468Z,1.00
2022-11-17T00:58:23.213Z,1.00
2022-11-17T00:58:47.145Z,1.00
2022-11-17T00:59:09.888Z,1.00
2022-11-17T00:59:32.629Z,1.00
2022-11-17T00:59:55.347Z,1.90
2022-11-17T01:00:18.337Z,1.20
2022-11-17T01:00:41.058Z,1.00
2022-11-17T01:01:03.981Z,1.00
2022-11-17T01:01:27.338Z,1.00
2022-11-17T01:01:50.207Z,1.00
2022-11-17T01:02:12.967Z,1.00
2022-11-17T01:02:37.632Z,1.00
2022-11-17T01:03:00.479Z,1.00
2022-11-17T01:03:23.163Z,1.00
2022-11-17T01:03:45.882Z,1.00
2022-11-17T01:04:08.964Z,1.00
2022-11-17T01:04:31.623Z,1.00
2022-11-17T01:04:54.292Z,1.00
2022-11-17T01:05:17.268Z,1.00
2022-11-17T01:05:40.005Z,1.00
2022-11-17T01:06:07.468Z,1.00
2022-11-17T01:06:31.488Z,1.00
2022-11-17T01:06:54.246Z,1.00
2022-11-17T01:07:17.051Z,1.00
2022-11-17T01:07:39.772Z,1.00
2022-11-17T01:08:02.878Z,1.00
2022-11-17T01:08:25.569Z,1.00
2022-11-17T01:08:48.304Z,1.00
2022-11-17T01:09:13.344Z,1.00
2022-11-17T01:09:36.080Z,1.00
2022-11-17T01:09:58.718Z,1.00
2022-11-17T01:10:21.511Z,1.00
2022-11-17T01:10:44.278Z,1.00
2022-11-17T01:11:09.279Z,1.00
2022-11-17T01:11:31.995Z,1.00
2022-11-17T01:11:54.718Z,1.00
2022-11-17T01:12:17.427Z,1.00
2022-11-17T01:12:40.712Z,1.00
2022-11-17T01:13:03.525Z,1.00
2022-11-17T01:13:26.227Z,1.00
2022-11-17T01:13:48.954Z,1.00
2022-11-17T01:14:14.252Z,1.00
2022-11-17T01:14:37.044Z,1.00
2022-11-17T01:14:59.738Z,1.00
2022-11-17T01:15:22.423Z,1.00
2022-11-17T01:15:45.180Z,1.00
2022-11-17T01:16:08.702Z,1.00
2022-11-17T01:16:33.088Z,1.00
2022-11-17T01:16:55.832Z,1.00
2022-11-17T01:17:18.548Z,1.00
2022-11-17T01:17:42.662Z,1.00
2022-11-17T01:18:05.518Z,1.00
2022-11-17T01:18:28.312Z,1.00
2022-11-17T01:18:51.087Z,1.00
2022-11-17T01:19:14.208Z,1.00
2022-11-17T01:19:36.889Z,1.00
2022-11-17T01:19:59.538Z,1.00
2022-11-17T01:20:22.893Z,1.00
2022-11-17T01:20:45.599Z,1.00
2022-11-17T01:21:10.172Z,1.00
2022-11-17T01:21:32.965Z,1.00
2022-11-17T01:21:55.610Z,1.00
2022-11-17T01:22:18.425Z,1.00
2022-11-17T01:22:41.124Z,1.00
2022-11-17T01:23:03.839Z,1.00
2022-11-17T01:23:26.552Z,1.00
2022-11-17T01:23:50.147Z,1.00
2022-11-17T01:24:15.230Z,1.00
2022-11-17T01:24:37.926Z,1.00
2022-11-17T01:25:00.628Z,1.00
2022-11-17T01:25:23.293Z,1.00
2022-11-17T01:25:46.022Z,1.00
2022-11-17T01:26:09.681Z,1.00
2022-11-17T01:26:34.977Z,1.00
2022-11-17T01:26:57.718Z,1.00
2022-11-17T01:27:20.445Z,1.00
2022-11-17T01:27:43.227Z,1.00
2022-11-17T01:28:05.903Z,1.00
2022-11-17T01:28:28.667Z,1.00
2022-11-17T01:28:51.386Z,1.00
2022-11-17T01:29:14.995Z,1.00
2022-11-17T01:29:37.722Z,1.00
2022-11-17T01:30:00.542Z,1.00
2022-11-17T01:30:23.242Z,1.00
2022-11-17T01:30:46.088Z,1.00
2022-11-17T01:31:10.722Z,1.00
2022-11-17T01:31:37.262Z,1.00
2022-11-17T01:32:00.001Z,1.00
2022-11-17T01:32:22.717Z,1.00
2022-11-17T01:32:46.950Z,1.00
2022-11-17T01:33:12.330Z,1.00
2022-11-17T01:33:35.296Z,1.00
2022-11-17T01:33:58.297Z,1.00
2022-11-17T01:34:21.077Z,1.00
2022-11-17T01:34:43.752Z,1.00
2022-11-17T01:35:07.242Z,1.00
2022-11-17T01:35:29.932Z,1.00
2022-11-17T01:35:52.587Z,1.00
2022-11-17T01:36:16.362Z,1.00
2022-11-17T01:36:59.842Z,1.00
2022-11-17T01:37:22.658Z,1.00
2022-11-17T01:37:45.280Z,1.00
2022-11-17T01:38:07.894Z,1.00
2022-11-17T01:38:30.719Z,1.00
2022-11-17T01:38:53.341Z,1.00
2022-11-17T01:39:16.137Z,1.00
2022-11-17T01:39:38.863Z,1.00
2022-11-17T01:40:01.593Z,1.00
2022-11-17T01:40:26.542Z,1.00
2022-11-17T01:40:49.188Z,1.00
2022-11-17T01:41:14.363Z,1.00
2022-11-17T01:41:36.977Z,1.00
2022-11-17T01:42:05.447Z,1.00
2022-11-17T01:42:28.272Z,1.00
2022-11-17T01:42:53.422Z,1.00
2022-11-17T01:43:16.253Z,1.00
2022-11-17T01:43:42.677Z,1.00
2022-11-17T01:44:38.658Z,1.00
2022-11-17T01:45:03.149Z,1.00
2022-11-17T01:45:26.896Z,1.00
2022-11-17T01:45:49.528Z,1.00
2022-11-17T01:46:15.903Z,1.00
2022-11-17T01:46:41.433Z,1.00
2022-11-17T01:47:04.196Z,1.00
2022-11-17T01:47:42.772Z,1.00
2022-11-17T01:48:07.082Z,1.00
2022-11-17T01:48:29.873Z,1.00
2022-11-17T01:48:52.947Z,1.00
2022-11-17T01:49:18.437Z,1.00
2022-11-17T01:49:41.137Z,1.00
2022-11-17T01:50:06.892Z,1.00
2022-11-17T01:50:32.324Z,1.00
2022-11-17T01:50:55.038Z,1.00
2022-11-17T01:51:17.793Z,1.00
2022-11-17T01:51:41.537Z,1.00
2022-11-17T01:52:05.763Z,1.00
2022-11-17T01:52:28.467Z,1.00
2022-11-17T01:52:51.419Z,1.00
2022-11-17T01:53:16.834Z,1.00
2022-11-17T01:53:39.683Z,1.00
2022-11-17T01:54:02.667Z,1.00
2022-11-17T01:54:26.032Z,1.00
2022-11-17T01:54:48.798Z,1.00
2022-11-17T01:55:11.620Z,1.00
2022-11-17T01:55:36.065Z,1.00
2022-11-17T01:56:00.348Z,1.00
2022-11-17T01:56:24.853Z,1.00
2022-11-17T01:56:48.330Z,1.00
2022-11-17T01:57:12.606Z,1.00
2022-11-17T01:57:38.067Z,1.00
2022-11-17T01:58:03.048Z,1.00
2022-11-17T01:58:27.435Z,1.00
2022-11-17T01:58:51.905Z,1.00
2022-11-17T01:59:17.438Z,1.00
2022-11-17T01:59:41.113Z,1.00
2022-11-17T02:00:05.922Z,1.00
2022-11-17T02:00:28.932Z,1.00
2022-11-17T02:00:51.673Z,1.00
2022-11-17T02:01:14.435Z,1.00
2022-11-17T02:01:55.898Z,1.00
2022-11-17T02:02:19.352Z,1.00
2022-11-17T02:02:42.154Z,1.00
2022-11-17T02:03:07.444Z,1.00
2022-11-17T02:03:33.057Z,1.00
2022-11-17T02:03:56.028Z,1.00
2022-11-17T02:04:18.792Z,1.00
2022-11-17T02:04:42.853Z,1.00
2022-11-17T02:05:10.718Z,1.00
2022-11-17T02:05:42.062Z,1.00
2022-11-17T02:06:07.522Z,1.00
2022-11-17T02:06:32.629Z,1.00
2022-11-17T02:06:58.581Z,1.00
2022-11-17T02:07:25.014Z,1.00
2022-11-17T02:07:47.784Z,1.00
2022-11-17T02:08:10.458Z,1.00
2022-11-17T02:08:33.177Z,1.00
2022-11-17T02:08:55.927Z,1.00
2022-11-17T02:09:18.633Z,1.00
2022-11-17T02:09:41.317Z,1.00
2022-11-17T02:10:08.548Z,1.00
2022-11-17T02:10:31.539Z,1.00
2022-11-17T02:10:54.273Z,1.00
2022-11-17T02:11:19.022Z,1.00
2022-11-17T02:11:41.834Z,1.00
2022-11-17T02:12:05.007Z,1.00
2022-11-17T02:12:27.871Z,1.00
2022-11-17T02:12:50.652Z,1.00
2022-11-17T02:13:13.782Z,1.00
2022-11-17T02:13:36.674Z,1.00
2022-11-17T02:13:59.591Z,1.00
2022-11-17T02:14:22.383Z,1.00
2022-11-17T02:14:45.112Z,1.00
2022-11-17T02:15:09.106Z,1.00
2022-11-17T02:15:31.832Z,1.00
2022-11-17T02:15:54.669Z,1.00
2022-11-17T02:16:17.446Z,1.00
2022-11-17T02:16:40.158Z,1.00
2022-11-17T02:17:10.079Z,1.00
2022-11-17T02:17:38.304Z,1.00
2022-11-17T02:18:01.156Z,1.00
2022-11-17T02:18:25.347Z,1.00
2022-11-17T02:18:48.093Z,1.00
2022-11-17T02:19:10.867Z,1.00
2022-11-17T02:19:36.095Z,1.00
2022-11-17T02:20:03.857Z,1.00
2022-11-17T02:20:38.713Z,1.00
2022-11-17T02:21:13.113Z,1.00
2022-11-17T02:22:05.402Z,1.00
2022-11-17T02:22:39.788Z,1.00
2022-11-17T02:23:25.432Z,1.00
2022-11-17T02:24:04.826Z,1.00
2022-11-17T02:25:00.183Z,1.00
2022-11-17T02:25:43.106Z,1.00
2022-11-17T02:26:22.936Z,1.00
2022-11-17T02:27:30.171Z,1.00
2022-11-17T02:28:14.206Z,1.00
2022-11-17T02:28:36.952Z,1.00
2022-11-17T02:29:00.666Z,1.00
2022-11-17T02:29:25.926Z,1.00
2022-11-17T02:29:51.359Z,1.00
2022-11-17T02:30:14.842Z,1.00
2022-11-17T02:30:41.021Z,1.00
2022-11-17T02:31:11.391Z,1.00
2022-11-17T02:31:37.321Z,1.00
2022-11-17T02:32:03.534Z,1.00
2022-11-17T02:32:30.085Z,1.00
2022-11-17T02:33:00.489Z,1.00
2022-11-17T02:33:26.247Z,1.00
2022-11-17T02:33:53.732Z,1.00
2022-11-17T02:34:20.235Z,1.00
2022-11-17T02:34:45.637Z,1.00
2022-11-17T02:35:12.184Z,1.00
2022-11-17T02:35:39.921Z,1.00
2022-11-17T02:36:03.894Z,1.00
2022-11-17T02:36:31.041Z,1.00
2022-11-17T02:36:55.336Z,1.00
2022-11-17T02:37:20.675Z,1.00
2022-11-17T02:37:47.536Z,1.00
2022-11-17T02:38:16.945Z,1.00
2022-11-17T02:38:41.491Z,1.00
2022-11-17T02:39:09.270Z,1.00
2022-11-17T02:39:33.455Z,1.00
2022-11-17T02:39:58.815Z,1.00
2022-11-17T02:40:24.420Z,1.00
2022-11-17T02:40:50.265Z,1.00
2022-11-17T02:41:14.250Z,1.00
2022-11-17T02:41:38.909Z,1.00
2022-11-17T02:42:04.871Z,1.00
2022-11-17T02:42:48.797Z,1.00
2022-11-17T02:43:33.324Z,1.00
2022-11-17T02:44:05.286Z,1.00
2022-11-17T02:44:32.389Z,1.00
2022-11-17T02:44:56.341Z,1.00
2022-11-17T02:45:20.656Z,1.00
2022-11-17T02:45:48.250Z,1.00
2022-11-17T02:46:14.430Z,1.00
2022-11-17T02:46:40.975Z,1.00
2022-11-17T02:47:06.556Z,1.00
2022-11-17T02:47:29.589Z,1.00
2022-11-17T02:47:53.595Z,1.00
2022-11-17T02:48:18.955Z,1.00
2022-11-17T02:48:46.420Z,1.00
2022-11-17T02:49:12.627Z,1.00
2022-11-17T02:49:36.347Z,1.00
2022-11-17T02:50:00.624Z,1.00
2022-11-17T02:50:28.002Z,1.00
2022-11-17T02:50:51.275Z,1.00
2022-11-17T02:51:22.873Z,1.00
2022-11-17T02:51:45.585Z,1.00
2022-11-17T02:52:08.321Z,1.00
2022-11-17T02:52:31.089Z,1.00
2022-11-17T02:52:53.929Z,1.00
2022-11-17T02:53:16.747Z,1.00
2022-11-17T02:53:39.990Z,1.00
2022-11-17T02:54:02.699Z,1.00
2022-11-17T02:54:27.195Z,1.00
2022-11-17T02:54:49.896Z,1.00
2022-11-17T02:55:12.664Z,1.00
2022-11-17T02:55:35.510Z,1.00
2022-11-17T02:56:00.655Z,1.00
2022-11-17T02:56:23.501Z,1.00
2022-11-17T02:56:48.899Z,1.00
2022-11-17T02:57:29.836Z,1.00
2022-11-17T02:57:52.536Z,1.00
2022-11-17T02:58:16.764Z,1.00
2022-11-17T02:58:39.515Z,1.00
2022-11-17T02:59:03.056Z,1.00
2022-11-17T02:59:27.815Z,1.00
2022-11-17T02:59:50.445Z,1.00
2022-11-17T03:00:14.449Z,1.00
2022-11-17T03:00:37.185Z,1.00
2022-11-17T03:01:26.304Z,1.00
2022-11-17T03:02:13.259Z,1.00
2022-11-17T03:02:44.324Z,1.00
2022-11-17T03:03:17.197Z,1.00
2022-11-17T03:03:48.831Z,1.00
2022-11-17T03:04:23.438Z,1.00
2022-11-17T03:04:51.223Z,1.00
2022-11-17T03:05:17.173Z,1.00
2022-11-17T03:05:43.404Z,1.00
2022-11-17T03:06:11.218Z,1.00
2022-11-17T03:06:38.405Z,1.00
2022-11-17T03:07:14.304Z,1.00
2022-11-17T03:07:49.706Z,1.00
2022-11-17T03:08:17.739Z,1.00
2022-11-17T03:08:45.123Z,1.00
2022-11-17T03:09:13.339Z,1.00
2022-11-17T03:09:44.044Z,1.00
2022-11-17T03:10:11.884Z,1.00
2022-11-17T03:10:40.958Z,1.00
2022-11-17T03:11:04.301Z,1.00
2022-11-17T03:11:29.919Z,1.00
2022-11-17T03:11:56.594Z,1.00
2022-11-17T03:12:22.786Z,1.00
2022-11-17T03:12:52.848Z,1.00
2022-11-17T03:13:19.146Z,1.00
2022-11-17T03:13:45.685Z,1.00
2022-11-17T03:14:10.000Z,1.00
2022-11-17T03:14:37.108Z,1.00
2022-11-17T03:15:03.824Z,1.00
2022-11-17T03:15:29.193Z,1.00
2022-11-17T03:15:54.757Z,1.00
2022-11-17T03:16:24.358Z,1.00
2022-11-17T03:16:50.961Z,1.00
2022-11-17T03:17:14.941Z,1.00
2022-11-17T03:17:44.267Z,1.00
2022-11-17T03:18:09.327Z,1.00
2022-11-17T03:18:36.223Z,1.00
2022-11-17T03:19:04.382Z,1.00
2022-11-17T03:19:28.631Z,1.00
2022-11-17T03:19:55.636Z,1.00
2022-11-17T03:20:20.646Z,1.00
2022-11-17T03:20:46.373Z,1.00
2022-11-17T03:21:11.837Z,1.00
2022-11-17T03:21:38.332Z,1.00
2022-11-17T03:22:05.329Z,1.00
2022-11-17T03:22:29.768Z,1.00
2022-11-17T03:22:55.121Z,1.00
2022-11-17T03:23:19.792Z,1.00
2022-11-17T03:23:44.652Z,1.00
2022-11-17T03:24:11.688Z,1.00
2022-11-17T03:24:35.677Z,1.00
2022-11-17T03:25:00.482Z,1.00
2022-11-17T03:25:23.361Z,1.00
2022-11-17T03:25:47.844Z,1.00
2022-11-17T03:26:12.039Z,1.00
2022-11-17T03:26:35.996Z,1.00
2022-11-17T03:27:00.901Z,1.00
2022-11-17T03:27:25.765Z,1.00
2022-11-17T03:27:49.452Z,1.00
2022-11-17T03:28:12.234Z,1.00
2022-11-17T03:28:36.343Z,1.00
2022-11-17T03:28:59.049Z,1.00
2022-11-17T03:29:25.556Z,1.00
2022-11-17T03:29:49.752Z,1.00
2022-11-17T03:30:12.808Z,1.00
2022-11-17T03:30:37.567Z,1.00
2022-11-17T03:31:00.642Z,1.00
2022-11-17T03:31:23.417Z,1.00
2022-11-17T03:31:49.042Z,1.00
2022-11-17T03:32:12.054Z,1.00
2022-11-17T03:32:37.838Z,1.00
2022-11-17T03:33:05.263Z,1.00
2022-11-17T03:33:28.039Z,1.00
2022-11-17T03:33:50.724Z,1.00
2022-11-17T03:34:16.004Z,1.00
2022-11-17T03:34:41.999Z,1.00
2022-11-17T03:35:06.722Z,1.00
2022-11-17T03:35:30.445Z,1.00
2022-11-17T03:35:55.286Z,1.00
2022-11-17T03:36:20.527Z,1.00
2022-11-17T03:36:45.765Z,1.00
2022-11-17T03:37:09.167Z,1.00
2022-11-17T03:37:32.853Z,1.00
2022-11-17T03:37:59.649Z,1.00
2022-11-17T03:38:24.003Z,1.00
2022-11-17T03:38:50.302Z,1.00
2022-11-17T03:39:15.858Z,1.00
2022-11-17T03:39:40.810Z,1.00
2022-11-17T03:40:06.452Z,1.00
2022-11-17T03:40:30.002Z,1.00
2022-11-17T03:40:52.691Z,1.00
2022-11-17T03:41:15.424Z,1.00
2022-11-17T03:41:39.542Z,1.00
2022-11-17T03:42:03.886Z,1.00
2022-11-17T03:42:28.535Z,1.00
2022-11-17T03:42:54.288Z,1.00
2022-11-17T03:43:17.413Z,1.00
2022-11-17T03:43:41.571Z,1.00
2022-11-17T03:44:04.891Z,1.00
2022-11-17T03:44:28.011Z,1.00
2022-11-17T03:44:53.106Z,1.00
2022-11-17T03:45:18.071Z,1.00
2022-11-17T03:45:42.732Z,1.00
2022-11-17T03:46:07.747Z,1.00
2022-11-17T03:46:30.552Z,1.00
2022-11-17T03:46:54.313Z,1.00
2022-11-17T03:47:17.070Z,1.00
2022-11-17T03:47:39.700Z,1.00
2022-11-17T03:48:05.572Z,1.00
2022-11-17T03:48:29.953Z,1.00
2022-11-17T03:48:56.477Z,1.00
2022-11-17T03:49:20.941Z,1.00
2022-11-17T03:49:46.252Z,1.00
2022-11-17T03:50:11.517Z,1.00
2022-11-17T03:50:35.949Z,1.00
2022-11-17T03:51:04.811Z,1.00
2022-11-17T03:51:28.281Z,1.00
2022-11-17T03:51:50.989Z,1.00
2022-11-17T03:52:13.723Z,1.00
2022-11-17T03:52:36.355Z,1.00
2022-11-17T03:52:59.026Z,1.00
2022-11-17T03:53:21.738Z,1.00
2022-11-17T03:53:44.482Z,1.00
2022-11-17T03:54:07.877Z,1.00
2022-11-17T03:54:30.602Z,1.00
2022-11-17T03:54:53.391Z,1.00
2022-11-17T03:55:16.292Z,1.00
2022-11-17T03:55:42.257Z,1.00
2022-11-17T03:56:09.799Z,1.00
2022-11-17T03:56:37.636Z,1.00
2022-11-17T03:57:02.776Z,1.00
2022-11-17T03:57:28.447Z,1.00
2022-11-17T03:57:54.076Z,1.00
2022-11-17T03:58:18.580Z,1.00
2022-11-17T03:58:46.432Z,1.00
2022-11-17T03:59:11.671Z,1.00
2022-11-17T03:59:36.656Z,1.00
2022-11-17T04:00:00.815Z,1.00
2022-11-17T04:00:23.451Z,1.00
2022-11-17T04:00:46.593Z,1.00
2022-11-17T04:01:09.425Z,1.00
2022-11-17T04:01:32.441Z,1.00
2022-11-17T04:01:55.221Z,1.00
2022-11-17T04:02:18.237Z,1.00
2022-11-17T04:02:42.096Z,1.00
2022-11-17T04:03:04.853Z,1.00
2022-11-17T04:03:30.030Z,1.00
2022-11-17T04:03:52.767Z,1.00
2022-11-17T04:04:16.097Z,1.00
2022-11-17T04:04:57.225Z,1.00
2022-11-17T04:05:19.876Z,1.00
2022-11-17T04:05:42.663Z,1.00
2022-11-17T04:06:05.631Z,1.00
2022-11-17T04:06:28.363Z,1.00
2022-11-17T04:06:51.771Z,1.00
2022-11-17T04:07:17.051Z,1.00
2022-11-17T04:07:41.337Z,1.00
2022-11-17T04:08:04.117Z,1.00
2022-11-17T04:08:29.679Z,1.00
2022-11-17T04:08:52.402Z,1.00
2022-11-17T04:09:17.669Z,1.00
2022-11-17T04:09:44.168Z,1.00
2022-11-17T04:10:07.690Z,1.00
2022-11-17T04:10:30.356Z,1.00
2022-11-17T04:11:11.902Z,1.00
2022-11-17T04:11:52.790Z,1.00
2022-11-17T04:12:34.096Z,1.00
2022-11-17T04:13:15.096Z,1.00
2022-11-17T04:13:56.257Z,1.00
2022-11-17T04:14:38.930Z,1.00
2022-11-17T04:15:20.211Z,1.00
2022-11-17T04:15:59.256Z,1.00
2022-11-17T04:16:24.890Z,1.00
2022-11-17T04:16:47.558Z,1.00
2022-11-17T04:17:10.286Z,1.00
2022-11-17T04:17:33.160Z,1.00
2022-11-17T04:17:55.986Z,1.00
2022-11-17T04:18:18.756Z,1.00
2022-11-17T04:18:41.433Z,1.00
2022-11-17T04:19:04.183Z,1.00
2022-11-17T04:19:26.815Z,1.00
2022-11-17T04:19:49.562Z,1.00
2022-11-17T04:20:12.319Z,99.90
2022-11-17T04:20:38.176Z,99.90
2022-11-17T04:21:00.936Z,99.90
2022-11-17T04:21:23.571Z,99.90
2022-11-17T04:21:46.211Z,1.00
2022-11-17T04:22:08.866Z,1.00
2022-11-17T04:22:31.558Z,1.00
2022-11-17T04:23:09.213Z,1.00
2022-11-17T04:23:31.932Z,1.00
2022-11-17T04:23:54.772Z,1.00
2022-11-17T04:24:18.422Z,1.00
2022-11-17T04:24:41.268Z,1.00
2022-11-17T04:25:06.081Z,1.00
2022-11-17T04:25:47.077Z,1.00
2022-11-17T04:26:28.541Z,1.00
2022-11-17T04:27:09.822Z,1.00
2022-11-17T04:27:51.434Z,99.90
2022-11-17T04:28:33.061Z,99.90
2022-11-17T04:28:55.822Z,99.90
2022-11-17T04:29:20.157Z,99.90
2022-11-17T04:29:42.823Z,1.00
2022-11-17T04:30:07.137Z,1.00
2022-11-17T04:30:29.947Z,1.00
2022-11-17T04:30:52.633Z,1.00
2022-11-17T04:31:16.255Z,1.00
2022-11-17T04:31:39.197Z,1.00
2022-11-17T04:32:02.026Z,1.00
2022-11-17T04:32:24.747Z,1.00
2022-11-17T04:32:47.507Z,1.00
2022-11-17T04:33:10.226Z,1.00
2022-11-17T04:33:33.197Z,1.00
2022-11-17T04:33:57.113Z,1.00
2022-11-17T04:34:20.083Z,1.00
2022-11-17T04:34:42.778Z,1.00
2022-11-17T04:35:06.174Z,1.00
2022-11-17T04:35:31.070Z,1.00
2022-11-17T04:35:53.817Z,1.00
2022-11-17T04:36:17.934Z,1.00
2022-11-17T04:36:44.309Z,1.00
2022-11-17T04:37:17.461Z,1.00
2022-11-17T04:37:40.371Z,1.00
2022-11-17T04:38:03.027Z,1.00
2022-11-17T04:38:25.744Z,1.00
2022-11-17T04:38:50.005Z,1.00
2022-11-17T04:39:13.122Z,1.00
2022-11-17T04:39:38.836Z,1.00
2022-11-17T04:40:05.034Z,1.00
2022-11-17T04:40:27.754Z,1.00
2022-11-17T04:41:08.789Z,1.00
2022-11-17T04:41:50.209Z,1.00
2022-11-17T04:42:12.890Z,1.00
2022-11-17T04:42:35.600Z,1.00
2022-11-17T04:42:58.239Z,1.00
2022-11-17T04:43:20.958Z,1.00
2022-11-17T04:43:43.563Z,1.00
2022-11-17T04:44:06.759Z,1.00
2022-11-17T04:44:31.480Z,1.00
2022-11-17T04:44:54.188Z,1.00
2022-11-17T04:45:17.024Z,1.00
2022-11-17T04:45:39.695Z,1.00
2022-11-17T04:46:02.324Z,1.00
2022-11-17T04:46:25.204Z,1.00
2022-11-17T04:46:48.114Z,1.00
2022-11-17T04:47:10.797Z,1.00
2022-11-17T04:47:33.503Z,1.00
2022-11-17T04:47:56.135Z,1.00
2022-11-17T04:48:19.019Z,1.00
2022-11-17T04:48:41.690Z,1.00
2022-11-17T04:49:07.401Z,1.00
2022-11-17T04:49:30.130Z,1.00
2022-11-17T04:49:52.799Z,1.00
2022-11-17T04:50:15.999Z,1.00
2022-11-17T04:50:38.658Z,1.00
2022-11-17T04:51:01.591Z,1.00
2022-11-17T04:51:24.541Z,1.00
2022-11-17T04:51:47.565Z,1.00
2022-11-17T04:52:10.239Z,1.00
2022-11-17T04:52:32.933Z,1.00
2022-11-17T04:52:55.596Z,1.00
2022-11-17T04:53:18.254Z,1.00
2022-11-17T04:53:40.944Z,1.00
2022-11-17T04:54:03.999Z,1.00
2022-11-17T04:54:26.708Z,1.00
2022-11-17T04:54:49.429Z,1.00
2022-11-17T04:55:12.176Z,1.00
2022-11-17T04:55:34.884Z,1.00
2022-11-17T04:56:02.114Z,1.00
2022-11-17T04:56:25.084Z,1.00
2022-11-17T04:56:50.873Z,1.00
2022-11-17T04:57:13.554Z,1.00
2022-11-17T04:57:36.279Z,1.00
2022-11-17T04:57:58.981Z,1.00
2022-11-17T04:58:21.643Z,1.00
2022-11-17T04:58:44.337Z,1.00
2022-11-17T04:59:07.375Z,1.00
2022-11-17T04:59:31.592Z,1.00
2022-11-17T04:59:54.308Z,1.00
2022-11-17T05:00:18.286Z,1.00
2022-11-17T05:00:41.015Z,1.00
2022-11-17T05:01:12.623Z,1.00
2022-11-17T05:01:35.372Z,1.00
2022-11-17T05:02:04.108Z,1.00
2022-11-17T05:02:28.747Z,1.00
2022-11-17T05:02:51.501Z,1.00
2022-11-17T05:03:14.215Z,1.00
2022-11-17T05:03:37.360Z,1.00
2022-11-17T05:04:00.963Z,1.00
2022-11-17T05:04:42.245Z,1.00
2022-11-17T05:05:06.397Z,1.00
2022-11-17T05:05:29.196Z,1.00
2022-11-17T05:05:51.886Z,1.00
2022-11-17T05:06:15.991Z,1.00
2022-11-17T05:06:39.688Z,1.00
2022-11-17T05:07:02.619Z,1.00
2022-11-17T05:07:25.538Z,1.00
2022-11-17T05:07:48.611Z,1.00
2022-11-17T05:08:11.386Z,1.00
2022-11-17T05:08:36.389Z,1.00
2022-11-17T05:08:59.837Z,1.00
2022-11-17T05:09:22.506Z,1.00
2022-11-17T05:09:46.417Z,1.00
2022-11-17T05:10:11.082Z,1.00
2022-11-17T05:10:52.498Z,1.00
2022-11-17T05:11:34.540Z,1.00
2022-11-17T05:12:15.774Z,1.00
2022-11-17T05:12:57.006Z,1.00
2022-11-17T05:13:22.710Z,1.00
2022-11-17T05:13:45.435Z,1.00
2022-11-17T05:14:08.236Z,1.00
2022-11-17T05:14:32.441Z,1.00
2022-11-17T05:14:55.231Z,1.00
2022-11-17T05:15:38.007Z,1.00
2022-11-17T05:16:19.047Z,1.00
2022-11-17T05:17:04.548Z,1.00
2022-11-17T05:17:34.408Z,1.00
2022-11-17T05:17:57.271Z,1.00
2022-11-17T05:18:20.081Z,1.00
2022-11-17T05:18:43.553Z,1.00
2022-11-17T05:19:06.632Z,1.00
2022-11-17T05:19:29.883Z,1.00
2022-11-17T05:19:52.512Z,1.00
2022-11-17T05:20:17.824Z,1.00
2022-11-17T05:20:40.792Z,1.00
2022-11-17T05:21:03.581Z,1.00
2022-11-17T05:21:26.288Z,1.00
2022-11-17T05:21:49.066Z,1.00
2022-11-17T05:22:30.937Z,1.00
2022-11-17T05:23:12.161Z,1.00
2022-11-17T05:23:55.987Z,1.00
2022-11-17T05:24:18.824Z,1.00
2022-11-17T05:24:41.627Z,1.00
2022-11-17T05:25:04.944Z,1.00
2022-11-17T05:25:27.662Z,1.00
2022-11-17T05:25:53.984Z,1.00
2022-11-17T05:26:16.667Z,1.00
2022-11-17T05:26:39.432Z,1.00
2022-11-17T05:27:02.187Z,1.00
2022-11-17T05:27:26.180Z,1.00
2022-11-17T05:27:48.965Z,1.00
2022-11-17T05:28:11.662Z,1.00
2022-11-17T05:28:34.610Z,1.00
2022-11-17T05:28:58.210Z,1.00
2022-11-17T05:29:21.706Z,1.00
2022-11-17T05:29:45.872Z,1.00
2022-11-17T05:30:10.576Z,1.00
2022-11-17T05:30:33.347Z,1.00
2022-11-17T05:30:56.147Z,1.00
2022-11-17T05:31:18.886Z,1.00
2022-11-17T05:31:41.587Z,1.00
2022-11-17T05:32:04.645Z,1.00
2022-11-17T05:32:27.387Z,1.00
2022-11-17T05:32:50.069Z,1.00
2022-11-17T05:33:12.787Z,1.00
2022-11-17T05:33:37.905Z,1.00
2022-11-17T05:34:01.186Z,1.00
2022-11-17T05:34:23.908Z,1.00
2022-11-17T05:34:46.868Z,1.00
2022-11-17T05:35:09.966Z,1.00
2022-11-17T05:35:32.706Z,1.00
2022-11-17T05:35:58.404Z,1.00
2022-11-17T05:36:21.543Z,1.00
2022-11-17T05:36:46.852Z,1.00
2022-11-17T05:37:09.593Z,1.00
2022-11-17T05:37:32.325Z,1.00
2022-11-17T05:37:55.177Z,1.00
2022-11-17T05:38:17.962Z,1.00
2022-11-17T05:38:44.159Z,1.00
2022-11-17T05:39:06.931Z,1.00